createdAt,value
2019-02-08T00:00:23.015Z,96.94
2019-02-08T00:02:52.113Z,97.25
2019-02-08T00:05:21.273Z,97.17
2019-02-08T00:07:50.431Z,96.92
2019-02-08T00:10:19.489Z,97.61
2019-02-08T00:12:50.520Z,98.03
2019-02-08T00:15:20.059Z,98.24
2019-02-08T00:17:51.254Z,98.12
2019-02-08T00:20:21.676Z,98.23
2019-02-08T00:22:51.902Z,98.60
2019-02-08T00:25:21.007Z,98.33
2019-02-08T00:27:50.103Z,98.30
2019-02-08T00:30:21.294Z,98.44
2019-02-08T00:32:50.397Z,98.30
2019-02-08T00:35:19.453Z,98.41
2019-02-08T00:37:48.534Z,97.58
2019-02-08T00:40:17.748Z,97.77
2019-02-08T00:42:46.842Z,97.81
2019-02-08T00:45:16.711Z,97.80
2019-02-08T00:47:47.878Z,97.61
2019-02-08T00:50:18.620Z,97.50
2019-02-08T00:52:47.794Z,97.01
2019-02-08T00:55:16.811Z,97.69
2019-02-08T00:57:45.953Z,97.68
2019-02-08T01:00:15.777Z,97.38
2019-02-08T01:02:44.880Z,98.00
2019-02-08T01:05:15.582Z,97.40
2019-02-08T01:07:44.709Z,97.11
2019-02-08T01:10:19.441Z,97.01
2019-02-08T01:12:48.524Z,97.40
2019-02-08T01:15:17.985Z,97.80
2019-02-08T01:17:47.079Z,97.76
2019-02-08T01:20:18.500Z,97.94
2019-02-08T01:22:47.570Z,97.89
2019-02-08T01:25:18.791Z,97.64
2019-02-08T01:27:48.321Z,97.58
2019-02-08T01:30:21.096Z,97.09
2019-02-08T01:32:50.240Z,97.40
2019-02-08T01:35:19.403Z,97.14
2019-02-08T01:37:48.648Z,97.06
2019-02-08T01:40:21.659Z,97.09
2019-02-08T01:42:50.722Z,96.23
2019-02-08T01:45:21.659Z,97.08
2019-02-08T01:47:50.735Z,97.00
2019-02-08T01:50:21.826Z,96.75
2019-02-08T01:52:50.912Z,96.61
2019-02-08T01:55:20.006Z,97.18
2019-02-08T01:57:49.819Z,97.44
2019-02-08T02:00:27.073Z,97.57
2019-02-08T02:02:56.196Z,97.50
2019-02-08T02:05:27.181Z,97.42
2019-02-08T02:07:56.257Z,97.46
2019-02-08T02:10:30.687Z,97.71
2019-02-08T02:12:59.810Z,97.40
2019-02-08T02:15:29.109Z,97.83
2019-02-08T02:17:58.179Z,97.11
2019-02-08T02:20:30.961Z,97.37
2019-02-08T02:23:01.264Z,97.01
2019-02-08T02:25:30.537Z,97.24
2019-02-08T02:27:59.645Z,96.51
2019-02-08T02:30:32.306Z,97.18
2019-02-08T02:33:01.350Z,97.88
2019-02-08T02:35:30.437Z,97.97
2019-02-08T02:37:59.489Z,97.72
2019-02-08T02:40:28.605Z,98.16
2019-02-08T02:42:57.678Z,98.19
2019-02-08T02:45:29.082Z,97.76
2019-02-08T02:47:58.191Z,98.45
2019-02-08T02:50:27.401Z,98.55
2019-02-08T02:52:56.489Z,98.11
2019-02-08T02:55:26.164Z,98.50
2019-02-08T02:57:55.365Z,98.61
2019-02-08T03:00:33.489Z,98.71
2019-02-08T03:03:02.852Z,98.34
2019-02-08T03:05:33.223Z,98.30
2019-02-08T03:08:02.521Z,98.42
2019-02-08T03:10:31.627Z,98.73
2019-02-08T03:13:00.804Z,98.28
2019-02-08T03:15:32.164Z,98.27
2019-02-08T03:18:01.217Z,97.80
2019-02-08T03:20:30.275Z,97.71
2019-02-08T03:22:59.386Z,97.70
2019-02-08T03:25:28.462Z,97.23
2019-02-08T03:27:57.566Z,97.10
2019-02-08T03:30:40.751Z,97.15
2019-02-08T03:33:09.838Z,96.87
2019-02-08T03:35:38.873Z,96.11
2019-02-08T03:38:07.984Z,96.59
2019-02-08T03:40:37.047Z,96.64
2019-02-08T03:43:06.168Z,96.32
2019-02-08T03:45:38.895Z,96.78
2019-02-08T03:48:08.050Z,96.82
2019-02-08T03:50:39.751Z,96.81
2019-02-08T03:53:09.260Z,96.83
2019-02-08T03:55:39.018Z,96.50
2019-02-08T03:58:08.926Z,95.73
2019-02-08T04:01:00.807Z,96.26
2019-02-08T04:03:29.926Z,96.49
2019-02-08T04:06:00.621Z,96.47
2019-02-08T04:08:29.733Z,95.62
2019-02-08T04:11:00.253Z,95.68
2019-02-08T04:13:29.375Z,95.55
2019-02-08T04:15:59.577Z,96.17
2019-02-08T04:18:28.982Z,96.52
2019-02-08T04:20:58.097Z,96.97
2019-02-08T04:23:27.149Z,96.63
2019-02-08T04:25:56.226Z,96.71
2019-02-08T04:28:25.739Z,96.86
2019-02-08T04:30:54.854Z,95.85
2019-02-08T04:33:23.975Z,96.48
2019-02-08T04:35:53.061Z,96.68
2019-02-08T04:38:22.209Z,97.03
2019-02-08T04:40:51.320Z,96.63
2019-02-08T04:43:20.468Z,96.26
2019-02-08T04:45:49.582Z,96.84
2019-02-08T04:48:18.724Z,96.40
2019-02-08T04:50:47.889Z,96.30
2019-02-08T04:53:17.015Z,96.70
2019-02-08T04:55:46.186Z,96.21
2019-02-08T04:58:15.287Z,97.33
2019-02-08T05:00:44.475Z,96.95
2019-02-08T05:03:13.568Z,96.27
2019-02-08T05:05:42.677Z,96.46
2019-02-08T05:08:11.779Z,96.37
2019-02-08T05:10:40.844Z,96.52
2019-02-08T05:13:10.007Z,96.40
2019-02-08T05:15:40.707Z,96.47
2019-02-08T05:18:09.797Z,95.77
2019-02-08T05:20:41.019Z,96.04
2019-02-08T05:23:10.068Z,95.89
2019-02-08T05:25:39.212Z,96.24
2019-02-08T05:28:08.253Z,95.16
2019-02-08T05:30:37.359Z,96.03
2019-02-08T05:33:08.533Z,95.77
2019-02-08T05:35:37.716Z,95.62
2019-02-08T05:38:06.823Z,96.04
2019-02-08T05:40:35.913Z,96.13
2019-02-08T05:43:05.517Z,95.85
2019-02-08T05:45:37.974Z,95.95
2019-02-08T05:48:08.410Z,96.49
2019-02-08T05:50:37.494Z,95.88
2019-02-08T05:53:08.853Z,95.87
2019-02-08T05:55:38.041Z,95.47
2019-02-08T05:58:07.860Z,95.20
2019-02-08T06:01:07.512Z,95.59
2019-02-08T06:03:36.577Z,95.34
2019-02-08T06:06:07.627Z,95.17
2019-02-08T06:08:36.719Z,95.48
2019-02-08T06:11:05.896Z,95.65
2019-02-08T06:13:34.987Z,94.81
2019-02-08T06:16:04.520Z,94.82
2019-02-08T06:18:33.633Z,95.00
2019-02-08T06:21:02.792Z,95.29
2019-02-08T06:23:44.268Z,95.25
2019-02-08T06:26:14.631Z,95.69
2019-02-08T06:28:47.865Z,95.12
2019-02-08T06:31:17.099Z,94.60
2019-02-08T06:33:46.249Z,93.95
2019-02-08T06:36:16.810Z,94.45
2019-02-08T06:38:45.876Z,94.35
2019-02-08T06:41:14.956Z,95.03
2019-02-08T06:43:44.069Z,95.34
2019-02-08T06:46:13.150Z,95.20
2019-02-08T06:48:42.816Z,94.41
2019-02-08T06:51:12.753Z,94.12
2019-02-08T06:53:42.762Z,94.68
2019-02-08T06:56:31.649Z,94.94
2019-02-08T06:59:25.638Z,92.90
2019-02-08T07:02:19.887Z,93.40
2019-02-08T07:04:57.298Z,93.19
2019-02-08T07:07:35.280Z,94.13
2019-02-08T07:10:32.987Z,93.95
2019-02-08T07:13:30.435Z,93.92
2019-02-08T07:16:10.435Z,93.90
2019-02-08T07:18:47.168Z,94.33
2019-02-08T07:21:38.610Z,94.58
2019-02-08T07:24:29.585Z,94.59
2019-02-08T07:27:05.404Z,95.11
2019-02-08T07:29:53.458Z,94.76
2019-02-08T07:32:30.016Z,94.12
2019-02-08T07:35:16.729Z,94.47
2019-02-08T07:38:03.365Z,94.55
2019-02-08T07:40:53.670Z,94.80
2019-02-08T07:43:51.135Z,94.11
2019-02-08T07:46:37.585Z,93.72
2019-02-08T07:49:24.480Z,93.91
2019-02-08T07:52:30.721Z,94.20
2019-02-08T07:55:28.185Z,94.09
2019-02-08T07:58:14.951Z,94.08
2019-02-08T08:01:00.638Z,94.85
2019-02-08T08:03:48.662Z,95.33
2019-02-08T08:06:38.319Z,94.97
2019-02-08T08:09:29.798Z,95.11
2019-02-08T08:12:06.746Z,94.17
2019-02-08T08:15:01.384Z,94.15
2019-02-08T08:17:48.006Z,93.87
2019-02-08T08:20:42.613Z,94.03
2019-02-08T08:23:35.132Z,93.64
2019-02-08T08:26:22.097Z,93.22
2019-02-08T08:29:11.553Z,92.85
2019-02-08T08:31:48.885Z,92.82
2019-02-08T08:35:08.048Z,93.48
2019-02-08T08:38:29.466Z,93.52
2019-02-08T08:41:51.853Z,93.41
2019-02-08T08:45:00.957Z,94.39
2019-02-08T08:48:06.055Z,94.37
2019-02-08T08:51:06.083Z,94.06
2019-02-08T08:54:12.680Z,94.70
2019-02-08T08:57:12.053Z,94.20
2019-02-08T09:00:18.086Z,94.66
2019-02-08T09:03:25.529Z,93.61
2019-02-08T09:06:28.073Z,93.22
2019-02-08T09:10:01.770Z,91.79
2019-02-08T09:13:16.518Z,91.45
2019-02-08T09:16:21.957Z,90.35
2019-02-08T09:19:27.796Z,91.82
2019-02-08T09:22:33.656Z,90.24
2019-02-08T09:25:30.409Z,90.77
2019-02-08T09:28:18.574Z,90.59
2019-02-08T09:31:13.560Z,90.47
2019-02-08T09:34:18.003Z,90.72
2019-02-08T09:37:13.975Z,89.62
2019-02-08T09:40:29.373Z,89.68
2019-02-08T09:43:27.306Z,90.28
2019-02-08T09:46:26.234Z,89.99
2019-02-08T09:49:45.896Z,90.72
2019-02-08T09:53:02.233Z,90.01
2019-02-08T09:56:07.440Z,90.14
2019-02-08T09:59:14.072Z,88.96
2019-02-08T10:02:38.420Z,88.20
2019-02-08T10:05:35.073Z,89.03
2019-02-08T10:08:40.239Z,88.77
2019-02-08T10:11:53.390Z,89.08
2019-02-08T10:15:03.679Z,88.03
2019-02-08T10:18:03.770Z,88.01
2019-02-08T10:21:05.473Z,88.74
2019-02-08T10:24:10.270Z,87.21
2019-02-08T10:27:11.445Z,85.96
2019-02-08T10:30:29.722Z,86.33
2019-02-08T10:33:49.021Z,87.09
2019-02-08T10:37:10.327Z,86.99
2019-02-08T10:40:26.652Z,86.95
2019-02-08T10:43:32.641Z,85.06
2019-02-08T10:46:35.531Z,85.32
2019-02-08T10:49:29.386Z,84.01
2019-02-08T10:52:45.879Z,86.81
2019-02-08T10:55:59.019Z,85.99
2019-02-08T10:59:05.696Z,84.45
2019-02-08T11:02:07.691Z,84.46
2019-02-08T11:05:14.060Z,86.37
2019-02-08T11:08:20.840Z,84.61
2019-02-08T11:11:30.064Z,84.30
2019-02-08T11:14:30.649Z,84.51
2019-02-08T11:17:38.122Z,84.62
2019-02-08T11:20:07.309Z,84.05
2019-02-08T11:22:36.615Z,85.03
2019-02-08T11:25:06.222Z,83.23
2019-02-08T11:27:35.378Z,83.42
2019-02-08T11:30:06.444Z,84.48
2019-02-08T11:32:43.188Z,84.49
2019-02-08T11:35:08.926Z,83.71
2019-02-08T11:37:38.023Z,83.59
2019-02-08T11:40:11.215Z,84.29
2019-02-08T11:42:43.900Z,84.62
2019-02-08T11:45:13.247Z,84.53
2019-02-08T11:47:42.399Z,83.28
2019-02-08T11:50:15.169Z,83.27
2019-02-08T11:52:46.390Z,83.78
2019-02-08T11:55:15.919Z,83.05
2019-02-08T11:57:45.068Z,83.30
2019-02-08T12:00:22.258Z,83.05
2019-02-08T12:02:52.740Z,83.56
2019-02-08T12:05:23.864Z,84.10
2019-02-08T12:07:53.644Z,84.33
2019-02-08T12:10:22.707Z,83.73
2019-02-08T12:12:51.811Z,83.90
2019-02-08T12:15:21.068Z,83.70
2019-02-08T12:17:51.315Z,84.48
2019-02-08T12:20:20.408Z,86.07
2019-02-08T12:22:50.806Z,85.35
2019-02-08T12:25:21.777Z,84.90
2019-02-08T12:27:51.699Z,85.04
2019-02-08T12:30:25.945Z,85.68
2019-02-08T12:33:00.656Z,87.06
2019-02-08T12:35:30.265Z,89.17
2019-02-08T12:37:59.458Z,89.24
2019-02-08T12:40:30.424Z,88.72
2019-02-08T12:43:01.223Z,89.56
2019-02-08T12:45:30.323Z,91.49
2019-02-08T12:47:59.395Z,91.62
2019-02-08T12:50:28.921Z,92.31
2019-02-08T12:52:58.131Z,92.01
2019-02-08T12:55:27.533Z,93.04
2019-02-08T12:57:56.540Z,93.18
2019-02-08T13:00:25.603Z,93.57
2019-02-08T13:02:56.559Z,93.30
2019-02-08T13:05:25.769Z,93.40
2019-02-08T13:07:55.062Z,92.96
2019-02-08T13:10:24.134Z,92.84
2019-02-08T13:12:53.190Z,91.92
2019-02-08T13:15:22.289Z,91.96
2019-02-08T13:17:51.353Z,91.27
2019-02-08T13:20:20.549Z,91.12
2019-02-08T13:22:49.574Z,90.04
2019-02-08T13:25:18.639Z,88.66
2019-02-08T13:27:47.785Z,88.42
2019-02-08T13:30:22.265Z,87.70
2019-02-08T13:32:52.607Z,88.03
2019-02-08T13:35:23.229Z,87.99
2019-02-08T13:37:52.276Z,88.07
2019-02-08T13:40:21.464Z,86.47
2019-02-08T13:42:50.536Z,86.24
2019-02-08T13:45:19.576Z,84.86
2019-02-08T13:47:48.700Z,83.46
2019-02-08T13:50:19.953Z,83.19
2019-02-08T13:52:49.574Z,82.95
2019-02-08T13:55:19.396Z,82.33
2019-02-08T13:57:48.518Z,82.69
2019-02-08T14:00:26.282Z,82.11
2019-02-08T14:02:56.482Z,82.20
2019-02-08T14:05:25.542Z,82.02
2019-02-08T14:07:54.619Z,81.92
2019-02-08T14:10:23.694Z,81.59
2019-02-08T14:12:52.830Z,82.10
2019-02-08T14:15:22.015Z,80.92
2019-02-08T14:17:51.169Z,80.89
2019-02-08T14:20:21.844Z,80.46
2019-02-08T14:22:50.901Z,80.37
2019-02-08T14:25:20.256Z,80.78
2019-02-08T14:27:50.584Z,80.62
2019-02-08T14:30:33.450Z,79.54
2019-02-08T14:33:02.877Z,80.31
2019-02-08T14:35:31.989Z,80.62
2019-02-08T14:38:02.789Z,80.26
2019-02-08T14:40:31.861Z,79.49
2019-02-08T14:43:00.999Z,79.08
2019-02-08T14:45:30.060Z,79.74
2019-02-08T14:48:08.144Z,79.91
2019-02-08T14:50:37.500Z,80.11
2019-02-08T14:53:06.557Z,79.86
2019-02-08T14:55:37.649Z,79.31
2019-02-08T14:58:07.258Z,80.16
2019-02-08T15:00:38.647Z,80.39
2019-02-08T15:03:07.780Z,80.29
2019-02-08T15:05:36.786Z,80.11
2019-02-08T15:08:05.977Z,80.40
2019-02-08T15:10:39.722Z,79.91
2019-02-08T15:13:10.128Z,81.29
2019-02-08T15:15:39.315Z,79.41
2019-02-08T15:18:08.389Z,80.02
2019-02-08T15:20:37.462Z,79.98
2019-02-08T15:23:06.721Z,78.75
2019-02-08T15:25:36.455Z,79.38
2019-02-08T15:28:08.602Z,79.06
2019-02-08T15:30:39.169Z,79.44
2019-02-08T15:33:08.277Z,79.20
2019-02-08T15:35:37.971Z,79.74
2019-02-08T15:38:10.441Z,79.76
2019-02-08T15:40:45.449Z,79.63
2019-02-08T15:43:32.747Z,80.07
2019-02-08T15:46:07.317Z,80.06
2019-02-08T15:48:38.863Z,81.27
2019-02-08T15:51:07.996Z,79.83
2019-02-08T15:53:37.121Z,80.13
2019-02-08T15:56:12.270Z,79.77
2019-02-08T15:58:43.561Z,79.92
2019-02-08T16:01:13.482Z,79.27
2019-02-08T16:03:42.628Z,79.47
2019-02-08T16:06:12.875Z,79.39
2019-02-08T16:08:42.047Z,78.99
2019-02-08T16:11:11.149Z,79.62
2019-02-08T16:13:40.320Z,79.62
2019-02-08T16:16:09.383Z,79.40
2019-02-08T16:18:38.417Z,78.83
2019-02-08T16:21:07.487Z,79.23
2019-02-08T16:23:36.790Z,79.48
2019-02-08T16:26:08.185Z,79.99
2019-02-08T16:28:37.349Z,79.55
2019-02-08T16:31:06.756Z,80.08
2019-02-08T16:33:35.901Z,80.34
2019-02-08T16:36:06.021Z,80.53
2019-02-08T16:38:35.074Z,80.68
2019-02-08T16:41:04.208Z,80.03
2019-02-08T16:43:33.305Z,80.40
2019-02-08T16:46:02.438Z,80.91
2019-02-08T16:48:31.531Z,80.89
2019-02-08T16:51:00.596Z,81.46
2019-02-08T16:53:29.628Z,81.46
2019-02-08T16:55:59.720Z,81.37
2019-02-08T16:58:28.755Z,81.57
2019-02-08T17:00:57.888Z,81.43
2019-02-08T17:03:26.978Z,81.52
2019-02-08T17:05:56.071Z,81.53
2019-02-08T17:08:25.154Z,81.64
2019-02-08T17:10:54.230Z,80.62
2019-02-08T17:13:23.323Z,81.06
2019-02-08T17:15:52.405Z,81.05
2019-02-08T17:18:21.547Z,80.69
2019-02-08T17:20:50.634Z,81.10
2019-02-08T17:23:19.718Z,81.94
2019-02-08T17:25:48.899Z,81.82
2019-02-08T17:28:20.264Z,82.16
2019-02-08T17:30:51.567Z,81.78
2019-02-08T17:33:21.127Z,82.34
2019-02-08T17:35:50.250Z,81.74
2019-02-08T17:38:20.763Z,81.97
2019-02-08T17:40:50.048Z,82.18
2019-02-08T17:43:19.134Z,81.24
2019-02-08T17:45:50.259Z,82.54
2019-02-08T17:48:19.332Z,81.92
2019-02-08T17:50:48.403Z,81.32
2019-02-08T17:53:17.557Z,83.28
2019-02-08T17:55:48.301Z,81.88
2019-02-08T17:58:17.507Z,83.27
2019-02-08T18:00:48.875Z,83.52
2019-02-08T18:03:18.040Z,83.14
2019-02-08T18:05:47.157Z,82.75
2019-02-08T18:08:18.555Z,83.53
2019-02-08T18:10:47.603Z,82.76
2019-02-08T18:13:17.570Z,82.50
2019-02-08T18:15:46.694Z,81.90
2019-02-08T18:18:17.961Z,82.94
2019-02-08T18:20:49.009Z,83.10
2019-02-08T18:23:18.080Z,82.68
2019-02-08T18:25:47.154Z,83.50
2019-02-08T18:28:16.651Z,83.59
2019-02-08T18:30:45.946Z,82.81
2019-02-08T18:33:15.115Z,82.89
2019-02-08T18:35:46.620Z,82.80
2019-02-08T18:38:15.755Z,83.57
2019-02-08T18:40:44.927Z,83.64
2019-02-08T18:43:14.004Z,83.19
2019-02-08T18:45:43.114Z,82.80
2019-02-08T18:48:12.235Z,82.92
2019-02-08T18:50:44.666Z,83.11
2019-02-08T18:53:14.887Z,82.76
2019-02-08T18:55:45.117Z,83.80
2019-02-08T18:58:19.059Z,83.07
2019-02-08T19:00:47.898Z,82.52
2019-02-08T19:03:17.181Z,82.38
2019-02-08T19:05:49.108Z,82.56
2019-02-08T19:08:20.262Z,82.21
2019-02-08T19:10:49.460Z,82.69
2019-02-08T19:13:18.705Z,82.79
2019-02-08T19:15:49.150Z,82.85
2019-02-08T19:18:22.503Z,82.53
2019-02-08T19:20:51.727Z,82.05
2019-02-08T19:23:21.222Z,82.34
2019-02-08T19:25:51.697Z,82.74
2019-02-08T19:28:26.257Z,82.53
2019-02-08T19:30:51.630Z,82.74
2019-02-08T19:33:20.994Z,82.40
2019-02-08T19:35:54.327Z,81.99
2019-02-08T19:38:23.427Z,82.17
2019-02-08T19:40:54.634Z,82.20
2019-02-08T19:43:23.937Z,82.96
2019-02-08T19:45:59.895Z,82.54
2019-02-08T19:48:31.449Z,81.82
2019-02-08T19:51:00.589Z,82.70
2019-02-08T19:53:29.702Z,82.78
2019-02-08T19:56:02.335Z,82.97
2019-02-08T19:58:34.656Z,82.17
2019-02-08T20:01:02.334Z,82.49
2019-02-08T20:03:32.552Z,82.56
2019-02-08T20:06:03.382Z,82.07
2019-02-08T20:08:38.099Z,82.59
2019-02-08T20:11:08.778Z,82.91
2019-02-08T20:13:37.926Z,81.98
2019-02-08T20:16:08.550Z,82.45
2019-02-08T20:18:39.135Z,82.64
2019-02-08T20:21:08.295Z,82.71
2019-02-08T20:23:39.738Z,82.99
2019-02-08T20:26:10.270Z,82.66
2019-02-08T20:28:42.402Z,81.98
2019-02-08T20:31:10.234Z,82.38
2019-02-08T20:33:41.882Z,82.44
2019-02-08T20:36:12.147Z,82.19
2019-02-08T20:38:41.450Z,82.88
2019-02-08T20:41:10.723Z,83.59
2019-02-08T20:43:39.882Z,83.22
2019-02-08T20:46:09.136Z,83.16
2019-02-08T20:48:38.926Z,83.24
2019-02-08T20:51:09.769Z,83.48
2019-02-08T20:53:38.884Z,82.86
2019-02-08T20:56:08.047Z,84.01
2019-02-08T20:58:37.186Z,83.65
2019-02-08T21:01:08.327Z,83.17
2019-02-08T21:03:37.469Z,83.49
2019-02-08T21:06:06.594Z,82.64
2019-02-08T21:08:36.792Z,82.41
2019-02-08T21:11:05.903Z,82.83
2019-02-08T21:13:35.058Z,82.29
2019-02-08T21:16:08.361Z,82.47
2019-02-08T21:18:37.500Z,82.96
2019-02-08T21:21:06.689Z,82.29
2019-02-08T21:23:35.816Z,82.53
2019-02-08T21:26:08.368Z,82.31
2019-02-08T21:28:37.531Z,82.45
2019-02-08T21:31:06.667Z,81.90
2019-02-08T21:33:35.812Z,81.50
2019-02-08T21:36:09.260Z,81.22
2019-02-08T21:38:38.491Z,81.65
2019-02-08T21:41:11.033Z,80.55
2019-02-08T21:43:41.286Z,79.95
2019-02-08T21:46:11.437Z,80.73
2019-02-08T21:48:40.580Z,79.67
2019-02-08T21:51:09.747Z,79.85
2019-02-08T21:53:38.883Z,79.32
2019-02-08T21:56:10.514Z,79.07
2019-02-08T21:58:39.750Z,78.74
2019-02-08T22:01:11.427Z,78.01
2019-02-08T22:03:40.617Z,77.60
2019-02-08T22:06:13.594Z,77.18
2019-02-08T22:08:45.050Z,77.13
2019-02-08T22:11:14.184Z,76.38
2019-02-08T22:13:43.304Z,76.54
2019-02-08T22:16:15.794Z,76.32
2019-02-08T22:18:45.020Z,76.23
2019-02-08T22:21:14.125Z,76.34
2019-02-08T22:23:43.391Z,76.37
2019-02-08T22:26:14.069Z,76.19
2019-02-08T22:28:43.302Z,76.08
2019-02-08T22:31:12.373Z,75.88
2019-02-08T22:33:43.502Z,75.61
2019-02-08T22:36:18.530Z,75.61
2019-02-08T22:38:47.692Z,75.65
2019-02-08T22:41:16.899Z,75.82
2019-02-08T22:43:46.115Z,75.16
2019-02-08T22:46:16.581Z,75.62
2019-02-08T22:48:50.635Z,75.24
2019-02-08T22:51:19.762Z,75.38
2019-02-08T22:53:51.764Z,74.69
2019-02-08T22:56:22.134Z,74.67
2019-02-08T22:58:51.427Z,75.31
2019-02-08T23:01:31.970Z,74.57
2019-02-08T23:04:01.902Z,75.38
2019-02-08T23:06:32.369Z,75.04
2019-02-08T23:09:01.529Z,74.92
2019-02-08T23:11:31.451Z,74.80
2019-02-08T23:14:00.602Z,74.86
2019-02-08T23:16:34.075Z,74.95
2019-02-08T23:19:03.158Z,75.30
2019-02-08T23:21:35.976Z,74.64
2019-02-08T23:24:07.409Z,74.54
2019-02-08T23:26:38.982Z,74.88
2019-02-08T23:29:08.095Z,75.05
2019-02-08T23:31:38.661Z,74.35
2019-02-08T23:34:07.792Z,74.65
2019-02-08T23:36:38.107Z,73.93
2019-02-08T23:39:12.489Z,74.29
2019-02-08T23:41:41.626Z,74.35
2019-02-08T23:44:10.720Z,74.49
2019-02-08T23:46:41.095Z,75.08
2019-02-08T23:49:11.345Z,74.38
2019-02-08T23:51:40.520Z,73.69
2019-02-08T23:54:11.204Z,74.37
2019-02-08T23:56:42.597Z,73.66
2019-02-08T23:59:12.238Z,73.83
